createdAt,value
2024-02-23T00:01:09.793Z,87.84
2024-02-23T00:03:38.121Z,86.63
2024-02-23T00:06:06.578Z,85.15
2024-02-23T00:08:35.947Z,85.46
2024-02-23T00:11:04.521Z,85.38
2024-02-23T00:13:32.826Z,84.43
2024-02-23T00:16:00.773Z,83.13
2024-02-23T00:18:29.155Z,83.35
2024-02-23T00:20:57.535Z,84.30
2024-02-23T00:23:25.743Z,83.15
2024-02-23T00:25:55.264Z,84.33
2024-02-23T00:28:23.250Z,84.37
2024-02-23T00:30:51.154Z,83.68
2024-02-23T00:33:19.152Z,85.04
2024-02-23T00:35:47.142Z,84.49
2024-02-23T00:38:15.180Z,82.98
2024-02-23T00:40:43.180Z,83.29
2024-02-23T00:43:12.485Z,81.58
2024-02-23T00:45:40.470Z,81.65
2024-02-23T00:48:09.472Z,81.75
2024-02-23T00:50:37.467Z,80.16
2024-02-23T00:53:05.764Z,81.98
2024-02-23T00:55:33.804Z,84.98
2024-02-23T00:58:01.736Z,85.30
2024-02-23T01:00:31.106Z,85.61
2024-02-23T01:03:00.917Z,86.85
2024-02-23T01:05:28.931Z,87.32
2024-02-23T01:07:56.915Z,89.30
2024-02-23T01:10:24.862Z,88.96
2024-02-23T01:12:52.939Z,90.99
2024-02-23T01:15:20.975Z,93.65
2024-02-23T01:17:50.264Z,98.68
2024-02-23T01:20:18.565Z,100.00
2024-02-23T01:22:46.579Z,100.00
2024-02-23T01:25:16.697Z,100.00
2024-02-23T01:27:45.502Z,100.00
2024-02-23T01:30:14.110Z,100.00
2024-02-23T01:32:42.307Z,100.00
2024-02-23T01:35:15.233Z,100.00
2024-02-23T01:37:43.300Z,100.00
2024-02-23T01:40:11.758Z,100.00
2024-02-23T01:42:39.644Z,100.00
2024-02-23T01:45:09.003Z,100.00
2024-02-23T01:47:37.338Z,100.00
2024-02-23T01:50:06.491Z,100.00
2024-02-23T01:52:36.619Z,100.00
2024-02-23T01:55:04.929Z,100.00
2024-02-23T01:57:45.345Z,100.00
2024-02-23T02:00:19.985Z,100.00
2024-02-23T02:02:54.402Z,100.00
2024-02-23T02:05:23.398Z,100.00
2024-02-23T02:08:00.079Z,100.00
2024-02-23T02:10:28.461Z,100.00
2024-02-23T02:12:56.396Z,100.00
2024-02-23T02:15:24.408Z,100.00
2024-02-23T02:17:52.358Z,100.00
2024-02-23T02:20:25.783Z,100.00
2024-02-23T02:22:55.329Z,100.00
2024-02-23T02:25:23.358Z,100.00
2024-02-23T02:27:51.383Z,100.00
2024-02-23T02:30:19.488Z,100.00
2024-02-23T02:32:47.518Z,100.00
2024-02-23T02:35:15.815Z,100.00
2024-02-23T02:37:43.738Z,100.00
2024-02-23T02:40:13.595Z,100.00
2024-02-23T02:42:41.531Z,100.00
2024-02-23T02:45:09.880Z,100.00
2024-02-23T02:47:38.224Z,100.00
2024-02-23T02:50:07.767Z,100.00
2024-02-23T02:52:35.913Z,100.00
2024-02-23T02:55:03.957Z,100.00
2024-02-23T02:57:33.299Z,100.00
2024-02-23T03:00:01.400Z,100.00
2024-02-23T03:02:29.546Z,100.00
2024-02-23T03:04:57.611Z,100.00
2024-02-23T03:07:25.624Z,100.00
2024-02-23T03:09:53.611Z,100.00
2024-02-23T03:12:21.595Z,99.43
2024-02-23T03:14:51.003Z,98.26
2024-02-23T03:17:19.000Z,99.28
2024-02-23T03:19:47.183Z,100.00
2024-02-23T03:22:15.271Z,99.04
2024-02-23T03:24:43.203Z,97.86
2024-02-23T03:27:11.741Z,97.61
2024-02-23T03:29:40.695Z,97.51
2024-02-23T03:32:11.312Z,97.93
2024-02-23T03:34:39.432Z,97.82
2024-02-23T03:37:07.438Z,98.69
2024-02-23T03:39:35.488Z,97.37
2024-02-23T03:42:03.488Z,96.82
2024-02-23T03:44:32.778Z,97.35
2024-02-23T03:47:00.855Z,99.51
2024-02-23T03:49:30.148Z,98.13
2024-02-23T03:51:58.191Z,95.42
2024-02-23T03:54:26.150Z,98.54
2024-02-23T03:56:54.217Z,97.46
2024-02-23T03:59:22.195Z,98.76
2024-02-23T04:01:50.264Z,98.43
2024-02-23T04:04:18.375Z,98.24
2024-02-23T04:06:47.761Z,96.27
2024-02-23T04:09:15.838Z,97.96
2024-02-23T04:11:43.917Z,97.48
2024-02-23T04:14:11.950Z,95.48
2024-02-23T04:16:39.864Z,95.60
2024-02-23T04:19:09.586Z,93.94
2024-02-23T04:21:38.799Z,93.68
2024-02-23T04:24:09.827Z,93.43
2024-02-23T04:26:38.026Z,94.41
2024-02-23T04:29:06.216Z,93.37
2024-02-23T04:31:34.255Z,96.11
2024-02-23T04:34:02.159Z,95.55
2024-02-23T04:36:30.314Z,97.33
2024-02-23T04:38:58.207Z,95.25
2024-02-23T04:41:28.300Z,95.49
2024-02-23T04:44:02.864Z,93.64
2024-02-23T04:46:32.764Z,93.11
2024-02-23T04:49:00.805Z,92.05
2024-02-23T04:51:28.821Z,92.88
2024-02-23T04:53:56.718Z,93.57
2024-02-23T04:56:24.750Z,91.61
2024-02-23T04:58:54.415Z,92.96
2024-02-23T05:01:22.386Z,92.69
2024-02-23T05:03:50.593Z,94.26
2024-02-23T05:06:18.617Z,91.11
2024-02-23T05:08:46.656Z,92.51
2024-02-23T05:11:16.950Z,91.09
2024-02-23T05:13:44.960Z,90.16
2024-02-23T05:16:16.158Z,90.49
2024-02-23T05:18:44.604Z,90.62
2024-02-23T05:21:12.621Z,90.68
2024-02-23T05:23:40.588Z,89.93
2024-02-23T05:26:09.673Z,90.03
2024-02-23T05:28:39.138Z,90.10
2024-02-23T05:31:07.187Z,90.12
2024-02-23T05:33:36.605Z,92.59
2024-02-23T05:36:06.133Z,91.75
2024-02-23T05:38:34.178Z,92.03
2024-02-23T05:41:02.443Z,93.90
2024-02-23T05:43:30.600Z,93.87
2024-02-23T05:45:59.924Z,95.61
2024-02-23T05:48:28.272Z,93.79
2024-02-23T05:50:57.636Z,94.15
2024-02-23T05:53:25.718Z,93.45
2024-02-23T05:55:53.698Z,92.87
2024-02-23T05:58:22.176Z,91.13
2024-02-23T06:00:51.104Z,92.83
2024-02-23T06:03:19.682Z,92.49
2024-02-23T06:05:47.845Z,93.08
2024-02-23T06:08:17.357Z,95.00
2024-02-23T06:10:45.421Z,93.93
2024-02-23T06:13:13.416Z,94.07
2024-02-23T06:15:41.923Z,94.61
2024-02-23T06:18:10.127Z,95.35
2024-02-23T06:20:38.151Z,92.61
2024-02-23T06:23:08.229Z,93.18
2024-02-23T06:25:37.663Z,93.96
2024-02-23T06:28:06.099Z,93.24
2024-02-23T06:30:34.167Z,92.67
2024-02-23T06:33:02.382Z,92.36
2024-02-23T06:35:30.419Z,92.75
2024-02-23T06:37:58.620Z,91.35
2024-02-23T06:40:34.035Z,91.28
2024-02-23T06:43:10.293Z,92.20
2024-02-23T06:45:38.367Z,91.65
2024-02-23T06:48:07.091Z,90.89
2024-02-23T06:50:35.153Z,92.48
2024-02-23T06:53:03.434Z,91.14
2024-02-23T06:55:31.900Z,90.57
2024-02-23T06:57:59.810Z,90.70
2024-02-23T07:00:29.485Z,90.01
2024-02-23T07:03:00.001Z,91.21
2024-02-23T07:05:28.237Z,91.30
2024-02-23T07:07:56.176Z,90.61
2024-02-23T07:10:26.278Z,90.53
2024-02-23T07:12:55.420Z,88.83
2024-02-23T07:15:23.629Z,90.27
2024-02-23T07:17:53.006Z,92.75
2024-02-23T07:20:20.910Z,92.21
2024-02-23T07:22:49.094Z,92.47
2024-02-23T07:25:18.705Z,91.28
2024-02-23T07:27:47.033Z,90.32
2024-02-23T07:30:15.465Z,91.25
2024-02-23T07:32:43.535Z,91.68
2024-02-23T07:35:13.307Z,91.58
2024-02-23T07:37:41.485Z,90.66
2024-02-23T07:40:10.255Z,90.53
2024-02-23T07:42:38.351Z,91.67
2024-02-23T07:45:07.254Z,90.40
2024-02-23T07:47:35.468Z,91.13
2024-02-23T07:50:03.836Z,88.82
2024-02-23T07:52:33.288Z,88.45
2024-02-23T07:55:03.927Z,88.06
2024-02-23T07:57:32.602Z,85.82
2024-02-23T08:00:00.781Z,85.83
2024-02-23T08:02:28.876Z,85.85
2024-02-23T08:04:56.992Z,86.98
2024-02-23T08:07:26.797Z,85.21
2024-02-23T08:09:56.389Z,86.38
2024-02-23T08:12:24.591Z,86.31
2024-02-23T08:14:54.506Z,85.06
2024-02-23T08:17:23.113Z,83.42
2024-02-23T08:19:51.179Z,85.00
2024-02-23T08:22:19.219Z,85.08
2024-02-23T08:24:47.093Z,84.93
2024-02-23T08:27:16.526Z,84.62
2024-02-23T08:29:44.968Z,84.18
2024-02-23T08:32:14.160Z,84.70
2024-02-23T08:34:42.256Z,84.31
2024-02-23T08:37:10.290Z,84.61
2024-02-23T08:39:38.340Z,83.18
2024-02-23T08:42:06.596Z,83.55
2024-02-23T08:44:36.517Z,84.91
2024-02-23T08:47:04.720Z,85.44
2024-02-23T08:49:32.749Z,85.10
2024-02-23T08:52:01.016Z,85.16
2024-02-23T08:54:28.929Z,86.57
2024-02-23T08:56:56.854Z,88.28
2024-02-23T08:59:24.832Z,88.81
2024-02-23T09:01:54.389Z,86.92
2024-02-23T09:04:22.433Z,90.31
2024-02-23T09:06:52.772Z,87.43
2024-02-23T09:09:21.699Z,87.82
2024-02-23T09:11:49.731Z,86.46
2024-02-23T09:14:17.695Z,86.40
2024-02-23T09:16:47.139Z,89.04
2024-02-23T09:19:16.588Z,89.33
2024-02-23T09:21:44.785Z,88.48
2024-02-23T09:24:12.975Z,86.40
2024-02-23T09:26:41.377Z,84.00
2024-02-23T09:29:10.668Z,82.37
2024-02-23T09:31:38.715Z,84.02
2024-02-23T09:34:06.729Z,82.10
2024-02-23T09:36:36.341Z,83.33
2024-02-23T09:39:05.720Z,81.99
2024-02-23T09:41:35.453Z,83.03
2024-02-23T09:44:04.601Z,81.94
2024-02-23T09:46:33.184Z,84.22
2024-02-23T09:49:04.432Z,83.23
2024-02-23T09:51:35.987Z,81.49
2024-02-23T09:54:05.545Z,78.56
2024-02-23T09:56:35.000Z,81.37
2024-02-23T09:59:05.598Z,80.63
2024-02-23T10:01:34.657Z,82.23
2024-02-23T10:04:05.867Z,82.89
2024-02-23T10:06:34.640Z,82.43
2024-02-23T10:09:05.488Z,82.15
2024-02-23T10:11:35.121Z,84.28
2024-02-23T10:14:03.789Z,82.94
2024-02-23T10:16:31.858Z,83.85
2024-02-23T10:19:00.085Z,83.74
2024-02-23T10:21:29.916Z,82.96
2024-02-23T10:23:57.942Z,84.36
2024-02-23T10:26:27.432Z,83.38
2024-02-23T10:28:59.771Z,83.16
2024-02-23T10:31:27.806Z,83.40
2024-02-23T10:33:59.519Z,80.89
2024-02-23T10:36:32.570Z,78.35
2024-02-23T10:39:04.300Z,77.42
2024-02-23T10:41:36.644Z,78.13
2024-02-23T10:44:06.496Z,77.76
2024-02-23T10:46:34.939Z,76.59
2024-02-23T10:49:04.033Z,79.04
2024-02-23T10:51:33.171Z,76.87
2024-02-23T10:54:02.422Z,76.71
2024-02-23T10:56:30.694Z,76.62
2024-02-23T10:58:58.678Z,76.48
2024-02-23T11:01:28.761Z,75.00
2024-02-23T11:03:57.326Z,78.78
2024-02-23T11:06:29.969Z,77.70
2024-02-23T11:09:08.482Z,74.42
2024-02-23T11:11:36.656Z,77.93
2024-02-23T11:14:10.063Z,78.32
2024-02-23T11:16:43.317Z,73.78
2024-02-23T11:19:12.895Z,75.46
2024-02-23T11:21:41.083Z,75.86
2024-02-23T11:24:09.455Z,73.26
2024-02-23T11:26:39.589Z,74.40
2024-02-23T11:29:12.363Z,76.81
2024-02-23T11:31:48.286Z,77.45
2024-02-23T11:34:23.834Z,76.99
2024-02-23T11:36:55.579Z,76.83
2024-02-23T11:39:26.772Z,75.54
2024-02-23T11:41:54.728Z,76.11
2024-02-23T11:44:22.738Z,76.03
2024-02-23T11:46:52.219Z,73.18
2024-02-23T11:49:20.229Z,73.35
2024-02-23T11:51:48.373Z,74.46
2024-02-23T11:54:16.780Z,73.14
2024-02-23T11:56:44.990Z,72.88
2024-02-23T11:59:13.695Z,72.47
2024-02-23T12:01:41.772Z,73.43
2024-02-23T12:04:11.114Z,70.56
2024-02-23T12:06:39.297Z,74.55
2024-02-23T12:09:07.416Z,73.67
2024-02-23T12:11:36.152Z,74.31
2024-02-23T12:14:08.906Z,75.33
2024-02-23T12:16:37.688Z,73.32
2024-02-23T12:19:05.681Z,70.72
2024-02-23T12:21:36.886Z,71.91
2024-02-23T12:24:07.464Z,72.36
2024-02-23T12:26:35.908Z,72.32
2024-02-23T12:29:07.570Z,75.02
2024-02-23T12:31:35.927Z,72.48
2024-02-23T12:34:04.071Z,72.77
2024-02-23T12:36:36.250Z,73.72
2024-02-23T12:39:05.681Z,72.63
2024-02-23T12:41:34.215Z,72.58
2024-02-23T12:44:02.226Z,73.39
2024-02-23T12:46:30.112Z,71.37
2024-02-23T12:48:58.151Z,71.94
2024-02-23T12:51:27.830Z,72.70
2024-02-23T12:53:55.909Z,71.19
2024-02-23T12:56:34.145Z,71.49
2024-02-23T12:59:02.329Z,70.20
2024-02-23T13:01:31.016Z,69.04
2024-02-23T13:03:59.070Z,71.83
2024-02-23T13:06:27.145Z,72.46
2024-02-23T13:08:55.252Z,72.45
2024-02-23T13:11:23.468Z,73.95
2024-02-23T13:13:52.849Z,72.51
2024-02-23T13:16:21.080Z,72.45
2024-02-23T13:18:49.090Z,70.65
2024-02-23T13:21:17.290Z,71.95
2024-02-23T13:23:45.381Z,73.30
2024-02-23T13:26:15.742Z,72.17
2024-02-23T13:28:44.418Z,70.75
2024-02-23T13:31:14.727Z,70.99
2024-02-23T13:33:42.852Z,68.92
2024-02-23T13:36:11.631Z,72.06
2024-02-23T13:38:40.918Z,72.48
2024-02-23T13:41:09.227Z,71.99
2024-02-23T13:43:37.229Z,70.23
2024-02-23T13:46:05.717Z,70.03
2024-02-23T13:48:35.275Z,71.41
2024-02-23T13:51:04.741Z,70.27
2024-02-23T13:53:32.238Z,72.02
2024-02-23T13:56:01.646Z,70.73
2024-02-23T13:58:29.982Z,72.24
2024-02-23T14:00:58.307Z,71.66
2024-02-23T14:03:26.510Z,71.12
2024-02-23T14:05:56.028Z,71.97
2024-02-23T14:08:24.040Z,71.55
2024-02-23T14:10:52.064Z,68.66
2024-02-23T14:13:20.985Z,72.20
2024-02-23T14:15:47.984Z,69.85
2024-02-23T14:18:16.067Z,69.38
2024-02-23T14:20:44.155Z,69.95
2024-02-23T14:23:13.741Z,72.28
2024-02-23T14:25:41.709Z,70.24
2024-02-23T14:28:10.972Z,68.79
2024-02-23T14:30:39.024Z,70.73
2024-02-23T14:33:07.169Z,70.55
2024-02-23T14:35:35.173Z,70.00
2024-02-23T14:38:05.556Z,70.96
2024-02-23T14:40:35.105Z,70.38
2024-02-23T14:43:03.469Z,67.10
2024-02-23T14:45:31.459Z,68.80
2024-02-23T14:47:59.858Z,69.71
2024-02-23T14:50:28.052Z,69.52
2024-02-23T14:52:56.343Z,69.92
2024-02-23T14:55:24.444Z,70.38
2024-02-23T14:57:54.034Z,71.73
2024-02-23T15:00:22.257Z,71.26
2024-02-23T15:02:50.376Z,72.98
2024-02-23T15:05:19.331Z,70.77
2024-02-23T15:07:47.608Z,75.21
2024-02-23T15:10:15.965Z,75.13
2024-02-23T15:12:44.038Z,74.05
2024-02-23T15:15:13.540Z,72.26
2024-02-23T15:17:43.521Z,72.38
2024-02-23T15:20:12.519Z,71.82
2024-02-23T15:22:43.582Z,71.60
2024-02-23T15:25:11.616Z,72.55
2024-02-23T15:27:41.126Z,71.60
2024-02-23T15:30:11.553Z,71.15
2024-02-23T15:32:41.055Z,71.01
2024-02-23T15:35:09.557Z,69.39
2024-02-23T15:37:37.704Z,71.49
2024-02-23T15:40:06.770Z,72.57
2024-02-23T15:42:36.823Z,70.72
2024-02-23T15:45:05.026Z,70.43
2024-02-23T15:47:33.099Z,70.52
2024-02-23T15:50:22.312Z,71.74
2024-02-23T15:52:51.088Z,73.56
2024-02-23T15:55:19.231Z,71.89
2024-02-23T15:57:47.161Z,73.67
2024-02-23T16:00:15.879Z,74.74
2024-02-23T16:02:44.079Z,78.60
2024-02-23T16:05:13.663Z,80.08
2024-02-23T16:07:41.686Z,80.62
2024-02-23T16:10:10.519Z,82.30
2024-02-23T16:12:38.952Z,82.60
2024-02-23T16:15:09.272Z,82.60
2024-02-23T16:17:38.138Z,83.62
2024-02-23T16:20:08.833Z,83.76
2024-02-23T16:22:38.255Z,84.94
2024-02-23T16:25:06.842Z,84.22
2024-02-23T16:27:34.856Z,85.01
2024-02-23T16:30:02.808Z,84.57
2024-02-23T16:32:30.820Z,85.19
2024-02-23T16:34:58.859Z,86.12
2024-02-23T16:37:25.898Z,85.39
2024-02-23T16:39:55.348Z,85.50
2024-02-23T16:42:23.443Z,84.28
2024-02-23T16:44:51.414Z,85.80
2024-02-23T16:47:19.471Z,84.79
2024-02-23T16:49:47.467Z,84.45
2024-02-23T16:52:15.432Z,84.08
2024-02-23T16:54:43.386Z,84.99
2024-02-23T16:57:12.701Z,85.72
2024-02-23T16:59:40.665Z,84.97
2024-02-23T17:02:08.847Z,86.28
2024-02-23T17:04:37.117Z,85.86
2024-02-23T17:07:06.745Z,86.44
2024-02-23T17:09:35.561Z,87.36
2024-02-23T17:12:03.829Z,87.39
2024-02-23T17:14:33.327Z,89.37
2024-02-23T17:17:03.294Z,89.73
2024-02-23T17:19:34.310Z,89.07
2024-02-23T17:22:02.369Z,89.95
2024-02-23T17:24:30.275Z,89.32
2024-02-23T17:26:58.561Z,87.85
2024-02-23T17:29:27.761Z,88.70
2024-02-23T17:31:57.303Z,88.32
2024-02-23T17:34:25.400Z,87.97
2024-02-23T17:36:53.373Z,87.20
2024-02-23T17:39:21.352Z,87.80
2024-02-23T17:41:49.730Z,88.61
2024-02-23T17:44:21.946Z,88.15
2024-02-23T17:46:49.915Z,88.41
2024-02-23T17:49:20.557Z,88.75
2024-02-23T17:51:48.607Z,88.94
2024-02-23T17:54:16.578Z,89.53
2024-02-23T17:56:44.577Z,89.91
2024-02-23T17:59:12.695Z,90.43
2024-02-23T18:01:40.667Z,90.09
2024-02-23T18:04:12.261Z,91.04
2024-02-23T18:06:42.114Z,90.13
2024-02-23T18:09:10.965Z,90.41
2024-02-23T18:11:39.422Z,89.77
2024-02-23T18:14:07.562Z,90.66
2024-02-23T18:16:35.555Z,90.54
2024-02-23T18:19:05.032Z,90.62
2024-02-23T18:21:33.221Z,90.98
2024-02-23T18:24:02.989Z,90.32
2024-02-23T18:26:31.015Z,90.31
2024-02-23T18:28:59.056Z,88.47
2024-02-23T18:31:27.071Z,88.75
2024-02-23T18:33:55.166Z,90.15
2024-02-23T18:36:23.938Z,89.99
2024-02-23T18:38:52.659Z,89.89
2024-02-23T18:41:22.079Z,90.12
2024-02-23T18:43:50.002Z,90.84
2024-02-23T18:46:18.096Z,90.12
2024-02-23T18:48:48.543Z,90.02
2024-02-23T18:51:20.558Z,90.01
2024-02-23T18:53:48.822Z,90.05
2024-02-23T18:56:16.844Z,91.75
2024-02-23T18:58:46.209Z,90.83
2024-02-23T19:01:14.263Z,92.16
2024-02-23T19:03:44.444Z,90.47
2024-02-23T19:06:16.568Z,90.81
2024-02-23T19:08:44.726Z,91.25
2024-02-23T19:11:13.365Z,91.11
2024-02-23T19:13:41.300Z,92.46
2024-02-23T19:16:15.880Z,91.74
2024-02-23T19:18:46.139Z,90.71
2024-02-23T19:21:13.914Z,90.19
2024-02-23T19:23:41.926Z,90.15
2024-02-23T19:26:09.874Z,89.57
2024-02-23T19:28:41.182Z,89.77
2024-02-23T19:31:09.248Z,90.28
2024-02-23T19:33:38.805Z,90.48
2024-02-23T19:36:10.754Z,90.96
2024-02-23T19:38:39.667Z,91.48
2024-02-23T19:41:07.685Z,91.29
2024-02-23T19:43:35.682Z,90.86
2024-02-23T19:46:11.152Z,91.10
2024-02-23T19:48:46.481Z,90.84
2024-02-23T19:51:15.213Z,90.16
2024-02-23T19:53:44.125Z,90.13
2024-02-23T19:56:13.998Z,91.69
2024-02-23T19:58:42.312Z,92.00
2024-02-23T20:01:11.241Z,91.87
2024-02-23T20:03:39.308Z,91.80
2024-02-23T20:06:13.904Z,92.32
2024-02-23T20:08:42.501Z,93.01
2024-02-23T20:11:10.801Z,93.07
2024-02-23T20:13:38.852Z,92.54
2024-02-23T20:16:07.009Z,93.82
2024-02-23T20:18:35.105Z,94.65
2024-02-23T20:21:03.234Z,95.17
2024-02-23T20:23:32.646Z,94.33
2024-02-23T20:26:00.739Z,94.92
2024-02-23T20:28:31.211Z,95.47
2024-02-23T20:31:05.258Z,95.06
2024-02-23T20:33:34.624Z,95.14
2024-02-23T20:36:03.181Z,95.90
2024-02-23T20:38:32.788Z,96.71
2024-02-23T20:41:01.015Z,97.15
2024-02-23T20:43:29.442Z,97.12
2024-02-23T20:45:58.274Z,97.46
2024-02-23T20:48:26.413Z,97.76
2024-02-23T20:50:54.596Z,97.64
2024-02-23T20:53:22.622Z,98.13
2024-02-23T20:55:52.102Z,98.06
2024-02-23T20:58:20.072Z,98.84
2024-02-23T21:00:49.262Z,98.33
2024-02-23T21:03:21.709Z,98.74
2024-02-23T21:05:48.949Z,99.17
2024-02-23T21:08:17.142Z,100.00
2024-02-23T21:10:45.276Z,100.00
2024-02-23T21:13:14.789Z,99.01
2024-02-23T21:15:43.140Z,99.65
2024-02-23T21:18:16.252Z,99.18
2024-02-23T21:20:45.721Z,99.64
2024-02-23T21:23:14.398Z,100.00
2024-02-23T21:25:43.013Z,100.00
2024-02-23T21:28:11.156Z,100.00
2024-02-23T21:30:44.779Z,100.00
2024-02-23T21:33:13.625Z,100.00
2024-02-23T21:35:42.106Z,100.00
2024-02-23T21:38:10.686Z,100.00
2024-02-23T21:40:39.050Z,100.00
2024-02-23T21:43:07.917Z,100.00
2024-02-23T21:45:36.039Z,100.00
2024-02-23T21:48:06.642Z,100.00
2024-02-23T21:50:34.772Z,100.00
2024-02-23T21:53:02.776Z,100.00
2024-02-23T21:55:30.744Z,100.00
2024-02-23T21:57:59.020Z,100.00
2024-02-23T22:00:27.148Z,100.00
2024-02-23T22:02:55.403Z,100.00
2024-02-23T22:05:24.826Z,100.00
2024-02-23T22:07:52.818Z,100.00
2024-02-23T22:10:20.808Z,100.00
2024-02-23T22:12:48.812Z,100.00
2024-02-23T22:15:17.326Z,100.00
2024-02-23T22:17:45.874Z,100.00
2024-02-23T22:20:14.597Z,100.00
2024-02-23T22:22:44.273Z,100.00
2024-02-23T22:25:12.402Z,100.00
2024-02-23T22:27:40.403Z,100.00
2024-02-23T22:30:09.696Z,100.00
2024-02-23T22:32:38.342Z,100.00
2024-02-23T22:35:07.319Z,100.00
2024-02-23T22:37:35.344Z,100.00
2024-02-23T22:40:05.458Z,100.00
2024-02-23T22:42:33.628Z,100.00
2024-02-23T22:45:04.023Z,100.00
2024-02-23T22:47:32.198Z,100.00
2024-02-23T22:50:00.341Z,100.00
2024-02-23T22:52:28.429Z,100.00
2024-02-23T22:54:57.172Z,100.00
2024-02-23T22:57:29.289Z,100.00
2024-02-23T22:59:57.409Z,100.00
2024-02-23T23:02:25.390Z,100.00
2024-02-23T23:04:53.374Z,100.00
2024-02-23T23:07:21.598Z,100.00
2024-02-23T23:09:49.742Z,100.00
2024-02-23T23:12:17.933Z,100.00
2024-02-23T23:14:47.451Z,100.00
2024-02-23T23:17:15.539Z,100.00
2024-02-23T23:19:45.865Z,100.00
2024-02-23T23:22:13.645Z,100.00
2024-02-23T23:24:41.749Z,100.00
2024-02-23T23:27:09.683Z,100.00
2024-02-23T23:29:38.146Z,100.00
2024-02-23T23:32:10.822Z,100.00
2024-02-23T23:34:39.540Z,100.00
2024-02-23T23:37:07.558Z,100.00
2024-02-23T23:39:35.801Z,100.00
2024-02-23T23:42:03.777Z,100.00
2024-02-23T23:44:31.776Z,100.00
2024-02-23T23:46:59.778Z,100.00
2024-02-23T23:49:29.119Z,100.00
2024-02-23T23:52:03.837Z,100.00
2024-02-23T23:54:33.326Z,100.00
2024-02-23T23:57:01.653Z,100.00
2024-02-23T23:59:29.668Z,100.00
